sensor_id;sensor_type;location;lat;lon;timestamp;pressure;altitude;pressure_sealevel;temperature;humidity
75008;BME280;63554;48.940;12.050;2023-01-31T00:01:32;97894.44;;;1.80;79.81
75008;BME280;63554;48.940;12.050;2023-01-31T00:05:35;97886.59;;;1.78;79.29
75008;BME280;63554;48.940;12.050;2023-01-31T00:09:38;97887.09;;;1.82;79.47
75008;BME280;63554;48.940;12.050;2023-01-31T00:13:42;97900.44;;;1.82;79.10
75008;BME280;63554;48.940;12.050;2023-01-31T00:17:45;97905.50;;;1.85;79.05
75008;BME280;63554;48.940;12.050;2023-01-31T00:21:48;97886.59;;;1.78;79.44
75008;BME280;63554;48.940;12.050;2023-01-31T00:25:50;97907.88;;;1.88;79.02
75008;BME280;63554;48.940;12.050;2023-01-31T00:29:54;97898.31;;;1.86;78.97
75008;BME280;63554;48.940;12.050;2023-01-31T00:33:57;97903.28;;;1.81;79.38
75008;BME280;63554;48.940;12.050;2023-01-31T00:38:00;97896.25;;;1.80;79.25
75008;BME280;63554;48.940;12.050;2023-01-31T00:42:03;97916.63;;;1.81;78.96
75008;BME280;63554;48.940;12.050;2023-01-31T00:46:07;97915.34;;;1.85;79.35
75008;BME280;63554;48.940;12.050;2023-01-31T00:50:13;97920.53;;;1.86;79.13
75008;BME280;63554;48.940;12.050;2023-01-31T00:54:16;97916.31;;;1.84;78.85
75008;BME280;63554;48.940;12.050;2023-01-31T00:58:19;97930.34;;;1.86;79.22
75008;BME280;63554;48.940;12.050;2023-01-31T01:02:23;97916.47;;;1.82;79.17
75008;BME280;63554;48.940;12.050;2023-01-31T01:06:27;97918.44;;;1.80;79.38
75008;BME280;63554;48.940;12.050;2023-01-31T01:10:29;97928.00;;;1.83;79.10
75008;BME280;63554;48.940;12.050;2023-01-31T01:14:33;97933.34;;;1.83;79.53
75008;BME280;63554;48.940;12.050;2023-01-31T01:18:37;97913.41;;;1.77;79.55
75008;BME280;63554;48.940;12.050;2023-01-31T01:22:40;97937.28;;;1.78;79.31
75008;BME280;63554;48.940;12.050;2023-01-31T01:26:44;97934.09;;;1.75;79.49
75008;BME280;63554;48.940;12.050;2023-01-31T01:30:47;97947.50;;;1.83;78.52
75008;BME280;63554;48.940;12.050;2023-01-31T01:34:51;97937.66;;;1.84;79.01
75008;BME280;63554;48.940;12.050;2023-01-31T01:38:53;97938.97;;;1.80;78.81
75008;BME280;63554;48.940;12.050;2023-01-31T01:42:56;97939.97;;;1.78;78.68
75008;BME280;63554;48.940;12.050;2023-01-31T01:46:59;97948.81;;;1.79;78.63
75008;BME280;63554;48.940;12.050;2023-01-31T01:51:05;97940.78;;;1.79;78.82
75008;BME280;63554;48.940;12.050;2023-01-31T01:55:13;97937.44;;;1.77;78.75
75008;BME280;63554;48.940;12.050;2023-01-31T01:59:20;97945.31;;;1.78;78.58
75008;BME280;63554;48.940;12.050;2023-01-31T02:03:24;97937.72;;;1.74;78.59
75008;BME280;63554;48.940;12.050;2023-01-31T02:07:29;97939.28;;;1.76;78.81
75008;BME280;63554;48.940;12.050;2023-01-31T02:11:38;97940.72;;;1.71;78.97
75008;BME280;63554;48.940;12.050;2023-01-31T02:15:41;97936.06;;;1.73;78.86
75008;BME280;63554;48.940;12.050;2023-01-31T02:19:51;97953.19;;;1.70;78.98
75008;BME280;63554;48.940;12.050;2023-01-31T02:24:25;97945.59;;;1.75;78.52
75008;BME280;63554;48.940;12.050;2023-01-31T02:33:13;97949.09;;;1.76;78.11
75008;BME280;63554;48.940;12.050;2023-01-31T02:37:28;97971.97;;;1.78;77.58
75008;BME280;63554;48.940;12.050;2023-01-31T02:41:35;97971.97;;;1.78;77.54
75008;BME280;63554;48.940;12.050;2023-01-31T02:45:46;97976.63;;;1.76;77.64
75008;BME280;63554;48.940;12.050;2023-01-31T02:49:56;97979.13;;;1.78;77.68
75008;BME280;63554;48.940;12.050;2023-01-31T02:54:04;97980.41;;;1.74;77.58
75008;BME280;63554;48.940;12.050;2023-01-31T02:58:11;97991.09;;;1.74;77.43
75008;BME280;63554;48.940;12.050;2023-01-31T03:02:15;97999.22;;;1.72;77.46
75008;BME280;63554;48.940;12.050;2023-01-31T03:06:43;97995.88;;;1.70;77.23
75008;BME280;63554;48.940;12.050;2023-01-31T03:10:59;97986.47;;;1.66;76.84
75008;BME280;63554;48.940;12.050;2023-01-31T03:15:18;98000.22;;;1.71;75.77
75008;BME280;63554;48.940;12.050;2023-01-31T03:19:28;98007.69;;;1.68;76.41
75008;BME280;63554;48.940;12.050;2023-01-31T03:23:37;98009.44;;;1.59;76.68
75008;BME280;63554;48.940;12.050;2023-01-31T03:27:46;98020.09;;;1.59;76.56
75008;BME280;63554;48.940;12.050;2023-01-31T03:31:53;98026.94;;;1.62;76.77
75008;BME280;63554;48.940;12.050;2023-01-31T03:36:05;98041.81;;;1.64;76.20
75008;BME280;63554;48.940;12.050;2023-01-31T03:40:16;98031.47;;;1.61;76.05
75008;BME280;63554;48.940;12.050;2023-01-31T03:44:25;98040.44;;;1.60;76.08
75008;BME280;63554;48.940;12.050;2023-01-31T03:48:35;98048.56;;;1.58;76.11
75008;BME280;63554;48.940;12.050;2023-01-31T03:52:42;98040.16;;;1.63;75.48
75008;BME280;63554;48.940;12.050;2023-01-31T03:56:52;98039.75;;;1.58;75.41
75008;BME280;63554;48.940;12.050;2023-01-31T04:00:58;98045.06;;;1.58;76.06
75008;BME280;63554;48.940;12.050;2023-01-31T04:05:06;98051.81;;;1.52;76.22
75008;BME280;63554;48.940;12.050;2023-01-31T04:09:09;98044.81;;;1.51;76.04
75008;BME280;63554;48.940;12.050;2023-01-31T04:13:13;98063.63;;;1.50;76.80
75008;BME280;63554;48.940;12.050;2023-01-31T04:17:16;98068.00;;;1.41;77.05
75008;BME280;63554;48.940;12.050;2023-01-31T04:21:19;98076.16;;;1.40;77.38
75008;BME280;63554;48.940;12.050;2023-01-31T04:25:21;98077.56;;;1.34;77.91
75008;BME280;63554;48.940;12.050;2023-01-31T04:29:25;98094.25;;;1.36;77.94
75008;BME280;63554;48.940;12.050;2023-01-31T04:33:28;98098.75;;;1.35;77.59
75008;BME280;63554;48.940;12.050;2023-01-31T04:37:31;98101.13;;;1.38;78.14
75008;BME280;63554;48.940;12.050;2023-01-31T04:41:34;98098.47;;;1.38;77.48
75008;BME280;63554;48.940;12.050;2023-01-31T04:45:38;98092.44;;;1.36;78.04
75008;BME280;63554;48.940;12.050;2023-01-31T04:49:41;98104.09;;;1.35;78.15
75008;BME280;63554;48.940;12.050;2023-01-31T04:53:44;98100.56;;;1.35;78.23
75008;BME280;63554;48.940;12.050;2023-01-31T04:57:47;98106.91;;;1.34;78.23
75008;BME280;63554;48.940;12.050;2023-01-31T05:01:51;98095.94;;;1.37;78.45
75008;BME280;63554;48.940;12.050;2023-01-31T05:05:53;98098.34;;;1.30;78.54
75008;BME280;63554;48.940;12.050;2023-01-31T05:09:56;98093.56;;;1.34;79.20
75008;BME280;63554;48.940;12.050;2023-01-31T05:13:59;98087.94;;;1.27;78.70
75008;BME280;63554;48.940;12.050;2023-01-31T05:18:03;98091.31;;;1.29;78.86
75008;BME280;63554;48.940;12.050;2023-01-31T05:22:07;98101.69;;;1.32;78.86
75008;BME280;63554;48.940;12.050;2023-01-31T05:26:09;98093.84;;;1.31;78.70
75008;BME280;63554;48.940;12.050;2023-01-31T05:30:12;98097.06;;;1.34;78.77
75008;BME280;63554;48.940;12.050;2023-01-31T05:34:16;98101.00;;;1.30;78.75
75008;BME280;63554;48.940;12.050;2023-01-31T05:38:19;98094.41;;;1.34;78.71
75008;BME280;63554;48.940;12.050;2023-01-31T05:42:22;98082.47;;;1.29;79.02
75008;BME280;63554;48.940;12.050;2023-01-31T05:46:24;98085.72;;;1.32;78.97
75008;BME280;63554;48.940;12.050;2023-01-31T05:50:29;98083.19;;;1.31;79.00
75008;BME280;63554;48.940;12.050;2023-01-31T05:54:31;98079.69;;;1.30;79.22
75008;BME280;63554;48.940;12.050;2023-01-31T05:58:34;98088.81;;;1.28;79.25
75008;BME280;63554;48.940;12.050;2023-01-31T06:02:37;98092.31;;;1.28;79.40
75008;BME280;63554;48.940;12.050;2023-01-31T06:06:41;98098.78;;;1.26;79.38
75008;BME280;63554;48.940;12.050;2023-01-31T06:10:45;98100.75;;;1.24;79.52
75008;BME280;63554;48.940;12.050;2023-01-31T06:14:47;98115.31;;;1.29;79.51
75008;BME280;63554;48.940;12.050;2023-01-31T06:18:50;98119.81;;;1.29;79.66
75008;BME280;63554;48.940;12.050;2023-01-31T06:22:57;98106.47;;;1.29;79.61
75008;BME280;63554;48.940;12.050;2023-01-31T06:27:01;98099.75;;;1.25;79.69
75008;BME280;63554;48.940;12.050;2023-01-31T06:31:07;98112.09;;;1.26;80.11
75008;BME280;63554;48.940;12.050;2023-01-31T06:35:10;98126.28;;;1.26;79.98
75008;BME280;63554;48.940;12.050;2023-01-31T06:39:14;98132.44;;;1.27;80.42
75008;BME280;63554;48.940;12.050;2023-01-31T06:43:16;98125.72;;;1.23;80.48
75008;BME280;63554;48.940;12.050;2023-01-31T06:47:19;98131.88;;;1.23;80.69
75008;BME280;63554;48.940;12.050;2023-01-31T06:51:22;98134.97;;;1.28;80.08
75008;BME280;63554;48.940;12.050;2023-01-31T06:55:26;98142.13;;;1.28;80.28
75008;BME280;63554;48.940;12.050;2023-01-31T06:59:29;98148.31;;;1.28;80.62
75008;BME280;63554;48.940;12.050;2023-01-31T07:03:33;98156.03;;;1.22;81.40
75008;BME280;63554;48.940;12.050;2023-01-31T07:07:35;98159.66;;;1.11;82.29
75008;BME280;63554;48.940;12.050;2023-01-31T07:11:39;98165.56;;;1.05;82.66
75008;BME280;63554;48.940;12.050;2023-01-31T07:15:42;98167.78;;;0.99;82.83
75008;BME280;63554;48.940;12.050;2023-01-31T07:19:45;98160.22;;;0.95;82.73
75008;BME280;63554;48.940;12.050;2023-01-31T07:23:48;98170.03;;;0.94;83.01
75008;BME280;63554;48.940;12.050;2023-01-31T07:27:52;98170.88;;;0.95;83.02
75008;BME280;63554;48.940;12.050;2023-01-31T07:31:55;98176.34;;;0.93;83.08
75008;BME280;63554;48.940;12.050;2023-01-31T07:36:00;98169.19;;;0.94;83.00
75008;BME280;63554;48.940;12.050;2023-01-31T07:40:04;98168.09;;;0.96;82.99
75008;BME280;63554;48.940;12.050;2023-01-31T07:44:08;98178.44;;;0.99;82.89
75008;BME280;63554;48.940;12.050;2023-01-31T07:48:12;98165.41;;;0.96;82.78
75008;BME280;63554;48.940;12.050;2023-01-31T07:52:15;98178.56;;;0.98;82.86
75008;BME280;63554;48.940;12.050;2023-01-31T07:56:19;98173.97;;;1.00;82.70
75008;BME280;63554;48.940;12.050;2023-01-31T08:00:23;98171.16;;;1.02;82.61
75008;BME280;63554;48.940;12.050;2023-01-31T08:04:44;98168.66;;;1.10;83.79
75008;BME280;63554;48.940;12.050;2023-01-31T08:08:48;98167.41;;;2.37;84.48
75008;BME280;63554;48.940;12.050;2023-01-31T08:12:50;98158.88;;;2.24;82.05
75008;BME280;63554;48.940;12.050;2023-01-31T08:16:55;98172.81;;;2.55;79.49
75008;BME280;63554;48.940;12.050;2023-01-31T08:20:58;98171.50;;;1.94;79.84
75008;BME280;63554;48.940;12.050;2023-01-31T08:25:00;98184.09;;;1.55;80.03
75008;BME280;63554;48.940;12.050;2023-01-31T08:29:03;98187.03;;;1.32;80.89
75008;BME280;63554;48.940;12.050;2023-01-31T08:33:08;98191.66;;;1.30;81.14
75008;BME280;63554;48.940;12.050;2023-01-31T08:37:11;98207.09;;;1.36;80.87
75008;BME280;63554;48.940;12.050;2023-01-31T08:41:14;98204.56;;;1.45;80.69
75008;BME280;63554;48.940;12.050;2023-01-31T08:45:18;98198.81;;;1.59;80.29
75008;BME280;63554;48.940;12.050;2023-01-31T08:49:22;98216.34;;;1.62;79.97
75008;BME280;63554;48.940;12.050;2023-01-31T08:53:25;98194.56;;;1.66;79.64
75008;BME280;63554;48.940;12.050;2023-01-31T08:57:28;98202.56;;;1.66;79.02
75008;BME280;63554;48.940;12.050;2023-01-31T09:01:31;98207.09;;;1.66;78.67
75008;BME280;63554;48.940;12.050;2023-01-31T09:05:37;98207.34;;;1.63;78.98
75008;BME280;63554;48.940;12.050;2023-01-31T09:09:40;98206.25;;;1.65;78.70
75008;BME280;63554;48.940;12.050;2023-01-31T09:13:43;98218.75;;;1.55;78.03
75008;BME280;63554;48.940;12.050;2023-01-31T09:17:46;98213.25;;;1.56;78.52
75008;BME280;63554;48.940;12.050;2023-01-31T09:21:50;98203.28;;;1.58;78.04
75008;BME280;63554;48.940;12.050;2023-01-31T09:25:53;98214.97;;;1.57;77.99
75008;BME280;63554;48.940;12.050;2023-01-31T09:29:55;98215.66;;;1.60;77.94
75008;BME280;63554;48.940;12.050;2023-01-31T09:33:58;98203.72;;;1.64;77.47
75008;BME280;63554;48.940;12.050;2023-01-31T09:38:02;98207.50;;;1.71;76.91
75008;BME280;63554;48.940;12.050;2023-01-31T09:42:15;98212.97;;;1.69;76.50
75008;BME280;63554;48.940;12.050;2023-01-31T09:46:23;98212.84;;;1.71;76.84
75008;BME280;63554;48.940;12.050;2023-01-31T09:50:33;98199.50;;;1.71;76.15
75008;BME280;63554;48.940;12.050;2023-01-31T09:54:39;98202.88;;;1.73;75.95
75008;BME280;63554;48.940;12.050;2023-01-31T09:58:52;98206.81;;;1.78;76.32
75008;BME280;63554;48.940;12.050;2023-01-31T10:03:20;98207.63;;;1.79;76.66
75008;BME280;63554;48.940;12.050;2023-01-31T10:07:28;98199.78;;;1.68;76.99
75008;BME280;63554;48.940;12.050;2023-01-31T10:11:39;98193.59;;;1.67;76.57
75008;BME280;63554;48.940;12.050;2023-01-31T10:15:48;98200.78;;;1.67;75.93
75008;BME280;63554;48.940;12.050;2023-01-31T10:19:54;98190.22;;;1.75;75.96
75008;BME280;63554;48.940;12.050;2023-01-31T10:24:04;98202.56;;;1.76;75.44
75008;BME280;63554;48.940;12.050;2023-01-31T10:28:15;98188.81;;;1.81;75.89
75008;BME280;63554;48.940;12.050;2023-01-31T10:32:24;98183.63;;;1.79;75.86
75008;BME280;63554;48.940;12.050;2023-01-31T10:36:32;98198.50;;;1.82;75.36
75008;BME280;63554;48.940;12.050;2023-01-31T10:40:38;98181.50;;;1.83;75.60
75008;BME280;63554;48.940;12.050;2023-01-31T10:44:48;98171.66;;;1.93;75.35
75008;BME280;63554;48.940;12.050;2023-01-31T10:48:52;98165.16;;;1.95;75.25
75008;BME280;63554;48.940;12.050;2023-01-31T10:53:07;98154.47;;;1.95;74.74
75008;BME280;63554;48.940;12.050;2023-01-31T10:57:16;98148.56;;;2.02;75.21
75008;BME280;63554;48.940;12.050;2023-01-31T11:01:21;98133.56;;;2.01;74.93
75008;BME280;63554;48.940;12.050;2023-01-31T11:05:25;98119.75;;;2.05;75.17
75008;BME280;63554;48.940;12.050;2023-01-31T11:09:33;98106.81;;;2.10;74.99
75008;BME280;63554;48.940;12.050;2023-01-31T11:13:36;98109.47;;;2.10;74.67
75008;BME280;63554;48.940;12.050;2023-01-31T11:17:41;98105.75;;;2.21;74.28
75008;BME280;63554;48.940;12.050;2023-01-31T11:21:48;98111.97;;;2.22;74.36
75008;BME280;63554;48.940;12.050;2023-01-31T11:25:52;98090.75;;;2.20;74.65
75008;BME280;63554;48.940;12.050;2023-01-31T11:29:56;98099.03;;;2.17;74.54
75008;BME280;63554;48.940;12.050;2023-01-31T11:34:03;98082.19;;;2.16;74.71
75008;BME280;63554;48.940;12.050;2023-01-31T11:38:18;98090.00;;;2.28;74.75
75008;BME280;63554;48.940;12.050;2023-01-31T11:42:23;98083.94;;;2.35;73.45
75008;BME280;63554;48.940;12.050;2023-01-31T11:46:26;98074.47;;;2.41;73.24
75008;BME280;63554;48.940;12.050;2023-01-31T11:50:33;98058.13;;;2.44;73.07
75008;BME280;63554;48.940;12.050;2023-01-31T11:54:40;98062.63;;;2.44;73.03
75008;BME280;63554;48.940;12.050;2023-01-31T11:58:47;98046.06;;;2.40;72.82
75008;BME280;63554;48.940;12.050;2023-01-31T12:02:57;98038.81;;;2.50;72.74
75008;BME280;63554;48.940;12.050;2023-01-31T12:07:04;98044.25;;;2.58;72.18
75008;BME280;63554;48.940;12.050;2023-01-31T12:11:26;98044.09;;;2.60;71.95
75008;BME280;63554;48.940;12.050;2023-01-31T12:15:30;98031.97;;;2.48;72.36
75008;BME280;63554;48.940;12.050;2023-01-31T12:19:43;98025.94;;;2.46;72.21
75008;BME280;63554;48.940;12.050;2023-01-31T12:23:58;98042.50;;;2.49;72.08
75008;BME280;63554;48.940;12.050;2023-01-31T12:28:13;98028.69;;;2.54;72.30
75008;BME280;63554;48.940;12.050;2023-01-31T12:32:34;98034.41;;;2.59;71.53
75008;BME280;63554;48.940;12.050;2023-01-31T12:36:52;98013.19;;;2.57;71.39
75008;BME280;63554;48.940;12.050;2023-01-31T12:41:07;98000.91;;;2.65;71.85
75008;BME280;63554;48.940;12.050;2023-01-31T12:45:17;97986.06;;;2.70;71.65
75008;BME280;63554;48.940;12.050;2023-01-31T12:54:04;97971.25;;;2.76;70.29
75008;BME280;63554;48.940;12.050;2023-01-31T12:58:25;97972.94;;;2.77;69.23
75008;BME280;63554;48.940;12.050;2023-01-31T13:02:38;97967.59;;;2.77;69.18
75008;BME280;63554;48.940;12.050;2023-01-31T13:06:44;97960.94;;;2.81;68.95
75008;BME280;63554;48.940;12.050;2023-01-31T13:10:49;97959.34;;;2.88;68.53
75008;BME280;63554;48.940;12.050;2023-01-31T13:15:01;97947.63;;;2.89;68.42
75008;BME280;63554;48.940;12.050;2023-01-31T13:19:12;97952.34;;;2.95;68.70
75008;BME280;63554;48.940;12.050;2023-01-31T13:23:20;97961.69;;;2.91;68.48
75008;BME280;63554;48.940;12.050;2023-01-31T13:27:28;97954.28;;;2.85;68.67
75008;BME280;63554;48.940;12.050;2023-01-31T13:31:37;97955.59;;;2.81;69.04
75008;BME280;63554;48.940;12.050;2023-01-31T13:35:47;97956.44;;;2.82;68.88
75008;BME280;63554;48.940;12.050;2023-01-31T13:39:54;97949.56;;;2.79;68.77
75008;BME280;63554;48.940;12.050;2023-01-31T13:44:00;97947.19;;;2.76;69.01
75008;BME280;63554;48.940;12.050;2023-01-31T13:48:07;97952.53;;;2.76;69.31
75008;BME280;63554;48.940;12.050;2023-01-31T13:52:16;97961.41;;;2.76;69.31
75008;BME280;63554;48.940;12.050;2023-01-31T13:56:24;97965.59;;;2.79;70.58
75008;BME280;63554;48.940;12.050;2023-01-31T14:00:36;97937.50;;;2.75;69.11
75008;BME280;63554;48.940;12.050;2023-01-31T14:04:41;97932.63;;;2.70;69.46
75008;BME280;63554;48.940;12.050;2023-01-31T14:08:57;97937.13;;;2.70;69.28
75008;BME280;63554;48.940;12.050;2023-01-31T14:13:26;97937.66;;;2.73;69.16
75008;BME280;63554;48.940;12.050;2023-01-31T14:17:58;97939.66;;;2.71;68.95
75008;BME280;63554;48.940;12.050;2023-01-31T14:22:13;97920.78;;;2.73;68.98
75008;BME280;63554;48.940;12.050;2023-01-31T14:26:33;97921.63;;;2.73;69.08
75008;BME280;63554;48.940;12.050;2023-01-31T14:30:39;97926.00;;;2.74;69.67
75008;BME280;63554;48.940;12.050;2023-01-31T14:34:47;97923.31;;;2.74;69.79
75008;BME280;63554;48.940;12.050;2023-01-31T14:43:56;97912.63;;;2.74;69.74
75008;BME280;63554;48.940;12.050;2023-01-31T14:48:18;97925.13;;;2.74;69.57
75008;BME280;63554;48.940;12.050;2023-01-31T14:52:38;97926.28;;;2.71;69.81
75008;BME280;63554;48.940;12.050;2023-01-31T14:57:07;97935.28;;;2.70;69.64
75008;BME280;63554;48.940;12.050;2023-01-31T15:01:13;97892.38;;;2.72;70.13
75008;BME280;63554;48.940;12.050;2023-01-31T15:05:24;97882.22;;;2.75;70.46
75008;BME280;63554;48.940;12.050;2023-01-31T15:09:39;97879.16;;;2.70;70.66
75008;BME280;63554;48.940;12.050;2023-01-31T15:13:48;97868.66;;;2.69;70.78
75008;BME280;63554;48.940;12.050;2023-01-31T15:17:51;97885.81;;;2.66;71.13
75008;BME280;63554;48.940;12.050;2023-01-31T15:21:58;97897.38;;;2.67;71.05
75008;BME280;63554;48.940;12.050;2023-01-31T15:26:02;97889.81;;;2.62;71.32
75008;BME280;63554;48.940;12.050;2023-01-31T15:30:13;97884.47;;;2.62;71.42
75008;BME280;63554;48.940;12.050;2023-01-31T15:34:20;97864.25;;;2.60;71.34
75008;BME280;63554;48.940;12.050;2023-01-31T15:38:28;97876.94;;;2.57;71.80
75008;BME280;63554;48.940;12.050;2023-01-31T15:42:33;97887.91;;;2.54;71.26
75008;BME280;63554;48.940;12.050;2023-01-31T15:46:37;97917.16;;;2.56;71.77
75008;BME280;63554;48.940;12.050;2023-01-31T15:50:48;97905.94;;;2.52;71.81
75008;BME280;63554;48.940;12.050;2023-01-31T15:54:56;97905.25;;;2.50;71.65
75008;BME280;63554;48.940;12.050;2023-01-31T15:58:59;97884.41;;;2.54;71.60
75008;BME280;63554;48.940;12.050;2023-01-31T16:03:07;97891.75;;;2.52;71.60
75008;BME280;63554;48.940;12.050;2023-01-31T16:07:20;97895.72;;;2.48;71.67
75008;BME280;63554;48.940;12.050;2023-01-31T16:11:24;97899.38;;;2.47;72.53
75008;BME280;63554;48.940;12.050;2023-01-31T16:15:29;97888.19;;;2.43;72.54
75008;BME280;63554;48.940;12.050;2023-01-31T16:19:34;97901.53;;;2.43;72.73
75008;BME280;63554;48.940;12.050;2023-01-31T16:23:36;97886.50;;;2.42;72.83
75008;BME280;63554;48.940;12.050;2023-01-31T16:27:41;97886.59;;;2.76;72.87
75008;BME280;63554;48.940;12.050;2023-01-31T16:31:48;97886.09;;;2.55;72.49
75008;BME280;63554;48.940;12.050;2023-01-31T16:36:02;97889.69;;;2.46;72.19
75008;BME280;63554;48.940;12.050;2023-01-31T16:40:19;97893.34;;;2.45;72.21
75008;BME280;63554;48.940;12.050;2023-01-31T16:44:26;97906.69;;;2.45;72.51
75008;BME280;63554;48.940;12.050;2023-01-31T16:48:31;97901.00;;;2.40;72.64
75008;BME280;63554;48.940;12.050;2023-01-31T16:52:36;97900.16;;;2.39;72.92
75008;BME280;63554;48.940;12.050;2023-01-31T16:56:39;97901.00;;;2.40;73.10
75008;BME280;63554;48.940;12.050;2023-01-31T17:00:43;97897.94;;;2.34;73.53
75008;BME280;63554;48.940;12.050;2023-01-31T17:04:47;97884.06;;;2.31;74.04
75008;BME280;63554;48.940;12.050;2023-01-31T17:08:53;97888.56;;;2.30;74.39
75008;BME280;63554;48.940;12.050;2023-01-31T17:12:59;97893.22;;;2.28;74.60
75008;BME280;63554;48.940;12.050;2023-01-31T17:17:02;97893.53;;;2.25;74.85
75008;BME280;63554;48.940;12.050;2023-01-31T17:21:16;97882.16;;;2.23;74.97
75008;BME280;63554;48.940;12.050;2023-01-31T17:25:22;97896.38;;;2.24;74.97
75008;BME280;63554;48.940;12.050;2023-01-31T17:29:25;97885.84;;;2.22;75.47
75008;BME280;63554;48.940;12.050;2023-01-31T17:33:28;97887.13;;;2.18;75.45
75008;BME280;63554;48.940;12.050;2023-01-31T17:37:31;97902.00;;;2.21;75.60
75008;BME280;63554;48.940;12.050;2023-01-31T17:41:35;97894.47;;;2.16;75.73
75008;BME280;63554;48.940;12.050;2023-01-31T17:45:39;97895.28;;;2.16;76.02
75008;BME280;63554;48.940;12.050;2023-01-31T17:49:42;97890.56;;;2.10;76.39
75008;BME280;63554;48.940;12.050;2023-01-31T17:53:45;97891.88;;;2.06;76.18
75008;BME280;63554;48.940;12.050;2023-01-31T17:57:52;97877.38;;;2.09;76.30
75008;BME280;63554;48.940;12.050;2023-01-31T18:01:55;97883.00;;;2.06;76.44
75008;BME280;63554;48.940;12.050;2023-01-31T18:06:01;97892.16;;;2.03;76.26
75008;BME280;63554;48.940;12.050;2023-01-31T18:10:05;97887.97;;;2.01;76.79
75008;BME280;63554;48.940;12.050;2023-01-31T18:14:10;97891.34;;;2.03;76.71
75008;BME280;63554;48.940;12.050;2023-01-31T18:18:12;97884.63;;;1.98;77.21
75008;BME280;63554;48.940;12.050;2023-01-31T18:22:15;97884.22;;;1.93;77.51
75008;BME280;63554;48.940;12.050;2023-01-31T18:26:19;97884.38;;;1.92;77.51
75008;BME280;63554;48.940;12.050;2023-01-31T18:30:24;97872.66;;;1.85;77.99
75008;BME280;63554;48.940;12.050;2023-01-31T18:34:27;97881.94;;;1.81;78.62
75008;BME280;63554;48.940;12.050;2023-01-31T18:38:29;97889.25;;;1.78;79.26
75008;BME280;63554;48.940;12.050;2023-01-31T18:42:32;97888.72;;;1.75;78.97
75008;BME280;63554;48.940;12.050;2023-01-31T18:46:36;97878.19;;;1.73;79.49
75008;BME280;63554;48.940;12.050;2023-01-31T18:50:39;97874.69;;;1.73;79.51
75008;BME280;63554;48.940;12.050;2023-01-31T18:54:42;97884.50;;;1.72;80.16
75008;BME280;63554;48.940;12.050;2023-01-31T18:58:47;97894.81;;;1.67;80.63
75008;BME280;63554;48.940;12.050;2023-01-31T19:02:52;97882.06;;;1.61;81.25
75008;BME280;63554;48.940;12.050;2023-01-31T19:06:55;97894.41;;;1.62;81.72
75008;BME280;63554;48.940;12.050;2023-01-31T19:11:05;97896.09;;;1.63;81.21
75008;BME280;63554;48.940;12.050;2023-01-31T19:15:10;97890.75;;;1.63;81.09
75008;BME280;63554;48.940;12.050;2023-01-31T19:19:15;97893.13;;;1.66;80.26
75008;BME280;63554;48.940;12.050;2023-01-31T19:28:40;97894.75;;;2.13;78.76
75008;BME280;63554;48.940;12.050;2023-01-31T19:32:44;97892.63;;;2.16;78.12
75008;BME280;63554;48.940;12.050;2023-01-31T19:36:48;97898.19;;;2.05;78.80
75008;BME280;63554;48.940;12.050;2023-01-31T19:41:02;97895.97;;;2.01;78.99
75008;BME280;63554;48.940;12.050;2023-01-31T19:45:07;97901.19;;;2.02;79.35
75008;BME280;63554;48.940;12.050;2023-01-31T19:49:20;97879.13;;;2.00;79.69
75008;BME280;63554;48.940;12.050;2023-01-31T19:53:25;97879.66;;;2.04;79.64
75008;BME280;63554;48.940;12.050;2023-01-31T19:57:28;97877.84;;;2.04;79.22
75008;BME280;63554;48.940;12.050;2023-01-31T20:01:32;97890.94;;;2.15;77.97
75008;BME280;63554;48.940;12.050;2023-01-31T20:05:35;97881.94;;;2.16;78.37
75008;BME280;63554;48.940;12.050;2023-01-31T20:09:40;97876.13;;;2.21;77.55
75008;BME280;63554;48.940;12.050;2023-01-31T20:13:44;97871.47;;;2.23;77.08
75008;BME280;63554;48.940;12.050;2023-01-31T20:17:47;97872.69;;;2.29;76.99
75008;BME280;63554;48.940;12.050;2023-01-31T20:21:50;97871.88;;;2.28;77.31
75008;BME280;63554;48.940;12.050;2023-01-31T20:25:55;97871.72;;;2.30;77.03
75008;BME280;63554;48.940;12.050;2023-01-31T20:29:58;97875.75;;;2.34;76.66
75008;BME280;63554;48.940;12.050;2023-01-31T20:34:01;97859.88;;;2.32;76.75
75008;BME280;63554;48.940;12.050;2023-01-31T20:38:03;97859.03;;;2.32;76.91
75008;BME280;63554;48.940;12.050;2023-01-31T20:42:08;97873.22;;;2.32;77.08
75008;BME280;63554;48.940;12.050;2023-01-31T20:46:13;97878.56;;;2.32;76.85
75008;BME280;63554;48.940;12.050;2023-01-31T20:50:16;97869.03;;;2.30;77.04
75008;BME280;63554;48.940;12.050;2023-01-31T20:54:19;97869.66;;;2.24;77.64
75008;BME280;63554;48.940;12.050;2023-01-31T20:58:24;97876.47;;;2.18;77.83
75008;BME280;63554;48.940;12.050;2023-01-31T21:02:27;97877.44;;;2.17;78.51
75008;BME280;63554;48.940;12.050;2023-01-31T21:06:30;97860.81;;;2.05;79.48
75008;BME280;63554;48.940;12.050;2023-01-31T21:10:33;97861.28;;;2.01;79.98
75008;BME280;63554;48.940;12.050;2023-01-31T21:14:37;97865.78;;;2.00;80.13
75008;BME280;63554;48.940;12.050;2023-01-31T21:18:40;97863.63;;;2.04;79.76
75008;BME280;63554;48.940;12.050;2023-01-31T21:22:44;97855.47;;;2.05;79.90
75008;BME280;63554;48.940;12.050;2023-01-31T21:26:47;97854.66;;;2.05;79.60
75008;BME280;63554;48.940;12.050;2023-01-31T21:30:57;97852.19;;;2.11;79.03
75008;BME280;63554;48.940;12.050;2023-01-31T21:35:00;97854.41;;;2.16;78.93
75008;BME280;63554;48.940;12.050;2023-01-31T21:39:03;97841.69;;;2.10;79.45
75008;BME280;63554;48.940;12.050;2023-01-31T21:43:06;97849.16;;;2.06;79.92
75008;BME280;63554;48.940;12.050;2023-01-31T21:47:11;97864.16;;;2.07;79.69
75008;BME280;63554;48.940;12.050;2023-01-31T21:51:15;97867.66;;;2.08;79.96
75008;BME280;63554;48.940;12.050;2023-01-31T21:55:18;97874.31;;;2.04;80.54
75008;BME280;63554;48.940;12.050;2023-01-31T21:59:22;97876.00;;;2.05;80.56
75008;BME280;63554;48.940;12.050;2023-01-31T22:03:26;97886.13;;;2.01;80.83